Munterville, Iowa
Current Conditions -  °F | °C
As of 6:53 AM on Thursday 30 Oct 2014 (Local Time) from KOTM Reporting Station
Overcast Overcast  
Wind Chill: 37°   Ceiling: 10000
Heat Index: 42°   Visibility: 10mi
Dew Point: 35°   Wind: 9mph
Humidity: 76%   Direction: 150°SSE
Pressure: 30.06"   Gusts: NA
Location:  40.9822°N, 92.5833°W
Report Text: KOTM 301153Z AUTO 15008KT 10SM FEW060 SCT080 OVC100 06/02 A3006 RMK AO2 SLP183 T00560017 10056 20006 56010
Loading
Personal Weather Stations






























Interactive Weather Map
Tropical Storm Tracking
New forecast layout! Learn more

10-Day Weather Forecast

Advertisements
Track Severe Weather on mobile